Terminal Aerodrome Forecast
Issued by NWS Wilmington, NC

Current Version | Previous Version | Text Only | Print | Product List | Glossary On
Versions: 1 2 3 4 5 6 7 8 9 10 11 12 13 14 15 16 17 18 19 20 21 22
000
FTUS42 KILM 172329
TAFLBT
TAF
KLBT 172329Z 1800/1824 21005KT P6SM FEW080 SCT250
     FM180200 22007KT P6SM SCT080 SCT250 WS015/23034KT
     FM181300 25012KT P6SM BKN080 PROB30 1814/1818 -SHRA
     FM181800 31011KT P6SM SCT080=

USA.gov is the U.S. government's official web portal to all federal, state and local government web resources and services.